This is the latest recevied weather packets stored in our database for station/object WP4PW. If no packets are shown the sender has not sent any weather packets the latest 10 day(s).
| Time | Temp. | Humidity | Pressure | Rain* | Wind** | Luminosity | Snow |
|---|---|---|---|---|---|---|---|
| 1778180962 | 29.44° C | 80% | 1020.2 hPa | 0 mm | - | 336 W/m² | - |
| 1778180660 | 30° C | 79% | 1020.1 hPa | 0 mm | - | 666 W/m² | - |
| 1778180359 | 30° C | 79% | 1020 hPa | 0 mm | - | 258 W/m² | - |
| 1778180056 | 30° C | 77% | 1020.2 hPa | 0 mm | - | 629 W/m² | - |
| 1778179753 | 30° C | 79% | 1020.1 hPa | 0 mm | - | 673 W/m² | - |
| 1778179451 | 30° C | 78% | 1020 hPa | 0 mm | - | 678 W/m² | - |
| 1778179148 | 31.11° C | 74% | 1020 hPa | 0 mm | - | 654 W/m² | - |
| 1778178845 | 30° C | 78% | 1020 hPa | 0 mm | - | 666 W/m² | - |
| 1778178542 | 31.11° C | 76% | 1020.2 hPa | 0 mm | - | 676 W/m² | - |
| 1778178237 | 30.56° C | 78% | 1020 hPa | 0 mm | - | 684 W/m² | - |
| 1778177934 | 30° C | 78% | 1020.3 hPa | 0 mm | - | 697 W/m² | - |
| 1778177630 | 30.56° C | 76% | 1020.3 hPa | 0 mm | - | 709 W/m² | - |
| 1778177327 | 30° C | 78% | 1020.4 hPa | 0 mm | - | 740 W/m² | - |
| 1778177024 | 30.56° C | 77% | 1020.5 hPa | 0 mm | - | 732 W/m² | - |
| 1778176720 | 30.56° C | 76% | 1020.6 hPa | 0 mm | - | 742 W/m² | - |
| 1778176417 | 30° C | 78% | 1020.6 hPa | 0 mm | - | 744 W/m² | - |
| 1778176114 | 30.56° C | 76% | 1020.7 hPa | 0 mm | - | 751 W/m² | - |
| 1778175812 | 31.11° C | 76% | 1020.5 hPa | 0 mm | - | 759 W/m² | - |
| 1778175509 | 30° C | 78% | 1021 hPa | 0 mm | - | 770 W/m² | - |
| 1778175206 | 30.56° C | 80% | 1020.9 hPa | 0 mm | - | 781 W/m² | - |
| 1778174902 | 30° C | 78% | 1021 hPa | 0 mm | - | 782 W/m² | - |
| 1778174599 | 30° C | 79% | 1020.9 hPa | 0 mm | - | 785 W/m² | - |
| 1778174295 | 30° C | 79% | 1021 hPa | 0 mm | - | 789 W/m² | - |
| 1778173992 | 30° C | 77% | 1021 hPa | 0 mm | - | 799 W/m² | - |
| 1778173689 | 30.56° C | 77% | 1021.2 hPa | 0 mm | - | 802 W/m² | - |
* Rain latest hour (hover to see other rain measurements)
** Current wind speed in m/s (hover to see current wind gust speed)